sensor_id;sensor_type;location;lat;lon;timestamp;pressure;altitude;pressure_sealevel;temperature;humidity
52591;BME280;38483;42.620;25.394;2023-03-23T00:02:15;96929.34;;;10.97;89.53
52591;BME280;38483;42.620;25.394;2023-03-23T00:04:41;96942.84;;;11.03;89.00
52591;BME280;38483;42.620;25.394;2023-03-23T00:07:08;96920.34;;;10.87;89.55
52591;BME280;38483;42.620;25.394;2023-03-23T00:09:34;96936.53;;;10.92;89.41
52591;BME280;38483;42.620;25.394;2023-03-23T00:12:07;96920.25;;;10.71;90.68
52591;BME280;38483;42.620;25.394;2023-03-23T00:14:33;96915.25;;;10.85;90.73
52591;BME280;38483;42.620;25.394;2023-03-23T00:17:10;96911.72;;;10.86;90.30
52591;BME280;38483;42.620;25.394;2023-03-23T00:19:40;96914.41;;;10.85;90.29
52591;BME280;38483;42.620;25.394;2023-03-23T00:22:14;96904.84;;;10.68;90.81
52591;BME280;38483;42.620;25.394;2023-03-23T00:24:41;96902.13;;;10.71;90.63
52591;BME280;38483;42.620;25.394;2023-03-23T00:27:07;96903.81;;;10.89;90.79
52591;BME280;38483;42.620;25.394;2023-03-23T00:29:34;96908.84;;;10.92;90.14
52591;BME280;38483;42.620;25.394;2023-03-23T00:32:00;96892.31;;;10.78;90.14
52591;BME280;38483;42.620;25.394;2023-03-23T00:34:31;96908.56;;;10.98;90.29
52591;BME280;38483;42.620;25.394;2023-03-23T00:36:58;96907.25;;;10.90;89.93
52591;BME280;38483;42.620;25.394;2023-03-23T00:39:26;96905.22;;;10.96;89.85
52591;BME280;38483;42.620;25.394;2023-03-23T00:41:54;96902.13;;;10.71;89.76
52591;BME280;38483;42.620;25.394;2023-03-23T00:44:33;96906.56;;;10.69;90.43
52591;BME280;38483;42.620;25.394;2023-03-23T00:47:01;96903.50;;;10.61;91.27
52591;BME280;38483;42.620;25.394;2023-03-23T00:49:30;96899.38;;;10.57;91.25
52591;BME280;38483;42.620;25.394;2023-03-23T00:52:00;96898.28;;;10.44;91.80
52591;BME280;38483;42.620;25.394;2023-03-23T00:54:27;96906.63;;;10.49;92.66
52591;BME280;38483;42.620;25.394;2023-03-23T00:56:53;96909.09;;;10.52;92.29
52591;BME280;38483;42.620;25.394;2023-03-23T00:59:20;96903.03;;;10.53;92.81
52591;BME280;38483;42.620;25.394;2023-03-23T01:01:46;96897.88;;;10.34;93.30
52591;BME280;38483;42.620;25.394;2023-03-23T01:04:13;96891.69;;;10.37;92.87
52591;BME280;38483;42.620;25.394;2023-03-23T01:06:43;96906.09;;;10.61;92.10
52591;BME280;38483;42.620;25.394;2023-03-23T01:09:14;96898.16;;;10.64;92.24
52591;BME280;38483;42.620;25.394;2023-03-23T01:11:43;96905.03;;;10.65;92.08
52591;BME280;38483;42.620;25.394;2023-03-23T01:14:11;96903.97;;;10.69;92.38
52591;BME280;38483;42.620;25.394;2023-03-23T01:16:37;96905.16;;;10.62;91.74
52591;BME280;38483;42.620;25.394;2023-03-23T01:19:03;96903.78;;;10.55;92.60
52591;BME280;38483;42.620;25.394;2023-03-23T01:21:29;96885.72;;;10.53;91.56
52591;BME280;38483;42.620;25.394;2023-03-23T01:23:55;96900.91;;;10.61;91.21
52591;BME280;38483;42.620;25.394;2023-03-23T01:26:25;96905.69;;;10.69;91.50
52591;BME280;38483;42.620;25.394;2023-03-23T01:28:52;96897.16;;;10.67;91.25
52591;BME280;38483;42.620;25.394;2023-03-23T01:31:21;96903.25;;;10.65;92.16
52591;BME280;38483;42.620;25.394;2023-03-23T01:33:47;96900.31;;;10.73;91.51
52591;BME280;38483;42.620;25.394;2023-03-23T01:36:19;96905.50;;;10.73;90.62
52591;BME280;38483;42.620;25.394;2023-03-23T01:38:46;96898.56;;;10.74;91.68
52591;BME280;38483;42.620;25.394;2023-03-23T01:41:14;96897.53;;;10.59;91.46
52591;BME280;38483;42.620;25.394;2023-03-23T01:46:28;96901.13;;;10.56;91.92
52591;BME280;38483;42.620;25.394;2023-03-23T01:48:58;96904.16;;;10.29;92.82
52591;BME280;38483;42.620;25.394;2023-03-23T01:51:26;96862.47;;;10.16;93.36
52591;BME280;38483;42.620;25.394;2023-03-23T01:54:00;96881.03;;;10.26;93.46
52591;BME280;38483;42.620;25.394;2023-03-23T01:56:31;96908.25;;;10.16;93.62
52591;BME280;38483;42.620;25.394;2023-03-23T01:58:59;96823.56;;;9.82;94.31
52591;BME280;38483;42.620;25.394;2023-03-23T02:01:26;96880.69;;;10.15;94.48
52591;BME280;38483;42.620;25.394;2023-03-23T02:03:54;96888.78;;;10.26;93.44
52591;BME280;38483;42.620;25.394;2023-03-23T02:06:22;96863.72;;;10.08;93.59
52591;BME280;38483;42.620;25.394;2023-03-23T02:09:10;96889.19;;;10.35;92.96
52591;BME280;38483;42.620;25.394;2023-03-23T02:11:37;96894.38;;;10.35;92.26
52591;BME280;38483;42.620;25.394;2023-03-23T02:14:03;96878.25;;;10.12;93.41
52591;BME280;38483;42.620;25.394;2023-03-23T02:35:53;96913.38;;;10.70;87.18
52591;BME280;38483;42.620;25.394;2023-03-23T02:38:36;96910.66;;;10.73;86.56
52591;BME280;38483;42.620;25.394;2023-03-23T02:41:03;96908.97;;;10.72;86.80
52591;BME280;38483;42.620;25.394;2023-03-23T02:43:36;96910.88;;;10.69;86.63
52591;BME280;38483;42.620;25.394;2023-03-23T02:46:04;96923.66;;;10.72;86.37
52591;BME280;38483;42.620;25.394;2023-03-23T02:48:33;96914.38;;;10.68;86.24
52591;BME280;38483;42.620;25.394;2023-03-23T02:51:00;96916.88;;;10.52;85.01
52591;BME280;38483;42.620;25.394;2023-03-23T02:53:28;96911.28;;;10.42;83.58
52591;BME280;38483;42.620;25.394;2023-03-23T02:55:55;96919.59;;;10.49;82.45
52591;BME280;38483;42.620;25.394;2023-03-23T02:58:27;96917.63;;;10.54;82.22
52591;BME280;38483;42.620;25.394;2023-03-23T03:00:54;96925.25;;;10.57;82.51
52591;BME280;38483;42.620;25.394;2023-03-23T03:03:26;96929.53;;;10.58;83.19
52591;BME280;38483;42.620;25.394;2023-03-23T03:08:55;96931.25;;;10.57;85.40
52591;BME280;38483;42.620;25.394;2023-03-23T03:11:25;96940.81;;;10.38;83.86
52591;BME280;38483;42.620;25.394;2023-03-23T03:14:02;96939.97;;;10.38;83.47
52591;BME280;38483;42.620;25.394;2023-03-23T03:17:00;96929.84;;;10.33;82.92
52591;BME280;38483;42.620;25.394;2023-03-23T03:19:32;96937.59;;;10.33;82.45
52591;BME280;38483;42.620;25.394;2023-03-23T03:22:00;96927.44;;;10.47;82.00
52591;BME280;38483;42.620;25.394;2023-03-23T03:24:37;96926.53;;;10.48;82.02
52591;BME280;38483;42.620;25.394;2023-03-23T03:27:11;96919.25;;;10.56;82.00
52591;BME280;38483;42.620;25.394;2023-03-23T03:30:03;96939.91;;;10.75;82.28
52591;BME280;38483;42.620;25.394;2023-03-23T03:32:36;96932.91;;;10.77;81.99
52591;BME280;38483;42.620;25.394;2023-03-23T03:35:06;96935.16;;;10.66;82.32
52591;BME280;38483;42.620;25.394;2023-03-23T03:37:36;96932.94;;;10.58;81.86
52591;BME280;38483;42.620;25.394;2023-03-23T03:40:10;96938.81;;;10.62;82.09
52591;BME280;38483;42.620;25.394;2023-03-23T03:42:40;96939.28;;;10.53;81.89
52591;BME280;38483;42.620;25.394;2023-03-23T03:45:10;96949.47;;;10.56;82.25
52591;BME280;38483;42.620;25.394;2023-03-23T03:47:37;96947.84;;;10.53;81.11
52591;BME280;38483;42.620;25.394;2023-03-23T03:50:04;96949.00;;;10.48;81.36
52591;BME280;38483;42.620;25.394;2023-03-23T03:52:31;96955.16;;;10.45;80.51
52591;BME280;38483;42.620;25.394;2023-03-23T03:54:57;96924.31;;;10.22;81.11
52591;BME280;38483;42.620;25.394;2023-03-23T03:57:24;96940.41;;;10.29;80.64
52591;BME280;38483;42.620;25.394;2023-03-23T04:00:09;96952.84;;;10.39;80.47
52591;BME280;38483;42.620;25.394;2023-03-23T04:02:50;96955.34;;;10.41;80.26
52591;BME280;38483;42.620;25.394;2023-03-23T04:05:40;96954.25;;;10.28;80.33
52591;BME280;38483;42.620;25.394;2023-03-23T04:08:07;96954.94;;;10.13;80.68
52591;BME280;38483;42.620;25.394;2023-03-23T04:10:33;96956.84;;;10.08;81.13
52591;BME280;38483;42.620;25.394;2023-03-23T04:13:00;96954.63;;;10.00;81.49
52591;BME280;38483;42.620;25.394;2023-03-23T04:15:46;96959.34;;;10.11;81.90
52591;BME280;38483;42.620;25.394;2023-03-23T04:18:13;96949.25;;;10.05;82.19
52591;BME280;38483;42.620;25.394;2023-03-23T04:20:42;96945.25;;;9.98;82.40
52591;BME280;38483;42.620;25.394;2023-03-23T04:23:10;96956.59;;;9.95;82.99
52591;BME280;38483;42.620;25.394;2023-03-23T04:25:36;96958.25;;;9.96;83.29
52591;BME280;38483;42.620;25.394;2023-03-23T04:28:04;96975.66;;;9.93;82.74
52591;BME280;38483;42.620;25.394;2023-03-23T04:30:37;96944.59;;;9.74;82.90
52591;BME280;38483;42.620;25.394;2023-03-23T04:33:06;96969.66;;;9.92;82.98
52591;BME280;38483;42.620;25.394;2023-03-23T04:35:32;96970.13;;;9.81;83.07
52591;BME280;38483;42.620;25.394;2023-03-23T04:38:11;96978.78;;;9.80;83.52
52591;BME280;38483;42.620;25.394;2023-03-23T04:40:39;96974.13;;;9.89;82.99
52591;BME280;38483;42.620;25.394;2023-03-23T04:43:24;96973.69;;;9.98;82.66
52591;BME280;38483;42.620;25.394;2023-03-23T04:46:11;96967.84;;;9.94;82.96
52591;BME280;38483;42.620;25.394;2023-03-23T04:48:38;96970.34;;;9.96;83.10
52591;BME280;38483;42.620;25.394;2023-03-23T04:51:18;96963.63;;;9.92;82.28
52591;BME280;38483;42.620;25.394;2023-03-23T04:53:47;96928.16;;;9.75;82.52
52591;BME280;38483;42.620;25.394;2023-03-23T04:56:14;96967.63;;;9.99;82.60
52591;BME280;38483;42.620;25.394;2023-03-23T04:58:43;96934.00;;;9.80;82.46
52591;BME280;38483;42.620;25.394;2023-03-23T05:01:30;96958.81;;;10.03;81.72
52591;BME280;38483;42.620;25.394;2023-03-23T05:04:19;96967.88;;;10.13;81.51
52591;BME280;38483;42.620;25.394;2023-03-23T05:06:57;96978.72;;;10.21;80.64
52591;BME280;38483;42.620;25.394;2023-03-23T05:09:26;96988.50;;;10.33;80.72
52591;BME280;38483;42.620;25.394;2023-03-23T05:11:52;96976.91;;;10.23;80.47
52591;BME280;38483;42.620;25.394;2023-03-23T05:14:18;96989.25;;;10.36;80.70
52591;BME280;38483;42.620;25.394;2023-03-23T05:16:52;96986.69;;;10.35;80.08
52591;BME280;38483;42.620;25.394;2023-03-23T05:19:20;96996.44;;;10.30;80.30
52591;BME280;38483;42.620;25.394;2023-03-23T05:21:46;96986.28;;;10.44;80.81
52591;BME280;38483;42.620;25.394;2023-03-23T05:24:12;96983.78;;;10.42;79.76
52591;BME280;38483;42.620;25.394;2023-03-23T05:26:39;97000.78;;;10.48;80.42
52591;BME280;38483;42.620;25.394;2023-03-23T05:29:15;96999.06;;;10.65;80.07
52591;BME280;38483;42.620;25.394;2023-03-23T05:31:52;96987.59;;;10.71;79.91
52591;BME280;38483;42.620;25.394;2023-03-23T05:34:19;97000.28;;;10.94;79.24
52591;BME280;38483;42.620;25.394;2023-03-23T05:36:49;96994.63;;;10.86;79.15
52591;BME280;38483;42.620;25.394;2023-03-23T05:39:29;97009.19;;;11.24;78.39
52591;BME280;38483;42.620;25.394;2023-03-23T05:42:05;97010.72;;;11.45;77.53
52591;BME280;38483;42.620;25.394;2023-03-23T05:44:48;97006.91;;;11.53;76.84
52591;BME280;38483;42.620;25.394;2023-03-23T05:47:14;97011.34;;;11.68;76.96
52591;BME280;38483;42.620;25.394;2023-03-23T05:49:48;97015.66;;;11.50;74.40
52591;BME280;38483;42.620;25.394;2023-03-23T05:52:18;97022.00;;;11.44;73.00
52591;BME280;38483;42.620;25.394;2023-03-23T05:54:45;97022.44;;;11.35;73.04
52591;BME280;38483;42.620;25.394;2023-03-23T05:57:11;97015.88;;;11.11;72.80
52591;BME280;38483;42.620;25.394;2023-03-23T05:59:49;97025.00;;;11.01;72.52
52591;BME280;38483;42.620;25.394;2023-03-23T06:02:22;97040.19;;;10.90;73.36
52591;BME280;38483;42.620;25.394;2023-03-23T06:04:51;97042.25;;;10.84;73.63
52591;BME280;38483;42.620;25.394;2023-03-23T06:07:28;97046.38;;;10.88;73.98
52591;BME280;38483;42.620;25.394;2023-03-23T06:10:01;97036.78;;;10.90;73.99
52591;BME280;38483;42.620;25.394;2023-03-23T06:12:39;97043.78;;;10.88;74.69
52591;BME280;38483;42.620;25.394;2023-03-23T06:15:23;97046.31;;;10.89;75.46
52591;BME280;38483;42.620;25.394;2023-03-23T06:18:16;97034.41;;;10.85;74.85
52591;BME280;38483;42.620;25.394;2023-03-23T06:21:03;97049.38;;;10.97;76.01
52591;BME280;38483;42.620;25.394;2023-03-23T06:24:04;97035.56;;;10.97;76.35
52591;BME280;38483;42.620;25.394;2023-03-23T06:26:33;97026.81;;;10.99;76.15
52591;BME280;38483;42.620;25.394;2023-03-23T06:29:03;97044.16;;;11.16;75.94
52591;BME280;38483;42.620;25.394;2023-03-23T06:31:42;97058.94;;;11.14;75.68
52591;BME280;38483;42.620;25.394;2023-03-23T06:34:09;97052.28;;;11.27;75.50
52591;BME280;38483;42.620;25.394;2023-03-23T06:37:10;97045.00;;;11.16;75.81
52591;BME280;38483;42.620;25.394;2023-03-23T06:39:48;97046.38;;;11.23;75.06
52591;BME280;38483;42.620;25.394;2023-03-23T06:42:40;97048.91;;;11.25;76.05
52591;BME280;38483;42.620;25.394;2023-03-23T06:45:25;97040.75;;;11.32;74.83
52591;BME280;38483;42.620;25.394;2023-03-23T06:48:04;97050.44;;;11.46;74.49
52591;BME280;38483;42.620;25.394;2023-03-23T06:50:31;97040.75;;;11.32;75.08
52591;BME280;38483;42.620;25.394;2023-03-23T06:52:58;97064.94;;;11.50;73.65
52591;BME280;38483;42.620;25.394;2023-03-23T06:55:24;97065.41;;;11.41;74.20
52591;BME280;38483;42.620;25.394;2023-03-23T06:57:50;97065.31;;;11.42;74.90
52591;BME280;38483;42.620;25.394;2023-03-23T07:00:16;97056.91;;;11.37;74.73
52591;BME280;38483;42.620;25.394;2023-03-23T07:02:43;97065.47;;;11.39;74.37
52591;BME280;38483;42.620;25.394;2023-03-23T07:05:11;97065.69;;;11.52;75.07
52591;BME280;38483;42.620;25.394;2023-03-23T07:07:39;97050.59;;;11.43;73.82
52591;BME280;38483;42.620;25.394;2023-03-23T07:10:28;97073.88;;;11.62;74.72
52591;BME280;38483;42.620;25.394;2023-03-23T07:12:55;97045.06;;;11.15;74.01
52591;BME280;38483;42.620;25.394;2023-03-23T07:15:21;97077.06;;;11.32;74.30
52591;BME280;38483;42.620;25.394;2023-03-23T07:17:50;97071.44;;;11.41;74.07
52591;BME280;38483;42.620;25.394;2023-03-23T07:20:27;97081.22;;;11.54;73.33
52591;BME280;38483;42.620;25.394;2023-03-23T07:22:53;97069.59;;;11.43;71.93
52591;BME280;38483;42.620;25.394;2023-03-23T07:25:46;97087.06;;;11.57;72.17
52591;BME280;38483;42.620;25.394;2023-03-23T07:28:19;97091.13;;;11.45;71.90
52591;BME280;38483;42.620;25.394;2023-03-23T07:30:46;97091.31;;;11.41;71.34
52591;BME280;38483;42.620;25.394;2023-03-23T07:33:12;97078.59;;;11.36;70.98
52591;BME280;38483;42.620;25.394;2023-03-23T07:35:39;97102.09;;;11.51;71.46
52591;BME280;38483;42.620;25.394;2023-03-23T07:38:11;97094.69;;;11.43;71.51
52591;BME280;38483;42.620;25.394;2023-03-23T07:40:38;97110.94;;;11.46;70.59
52591;BME280;38483;42.620;25.394;2023-03-23T07:43:11;97109.09;;;11.48;71.46
52591;BME280;38483;42.620;25.394;2023-03-23T07:45:55;97103.03;;;11.67;70.33
52591;BME280;38483;42.620;25.394;2023-03-23T07:48:25;97112.97;;;11.76;70.29
52591;BME280;38483;42.620;25.394;2023-03-23T07:50:52;97104.75;;;11.68;70.29
52591;BME280;38483;42.620;25.394;2023-03-23T07:53:18;97100.31;;;11.70;69.69
52591;BME280;38483;42.620;25.394;2023-03-23T07:55:52;97086.28;;;11.74;70.03
52591;BME280;38483;42.620;25.394;2023-03-23T07:58:50;97109.16;;;12.00;69.99
52591;BME280;38483;42.620;25.394;2023-03-23T08:01:18;97114.81;;;12.08;68.17
52591;BME280;38483;42.620;25.394;2023-03-23T08:03:59;97113.28;;;12.04;68.94
52591;BME280;38483;42.620;25.394;2023-03-23T08:06:51;97115.75;;;12.07;67.73
52591;BME280;38483;42.620;25.394;2023-03-23T08:09:44;97123.84;;;12.01;68.14
52591;BME280;38483;42.620;25.394;2023-03-23T08:12:37;97100.16;;;11.90;68.05
52591;BME280;38483;42.620;25.394;2023-03-23T08:15:22;97121.53;;;12.12;67.50
52591;BME280;38483;42.620;25.394;2023-03-23T08:18:05;97134.81;;;12.06;67.98
52591;BME280;38483;42.620;25.394;2023-03-23T08:20:31;97131.09;;;12.11;67.79
52591;BME280;38483;42.620;25.394;2023-03-23T08:23:19;97128.41;;;12.13;68.39
52591;BME280;38483;42.620;25.394;2023-03-23T08:25:45;97132.69;;;11.97;68.27
52591;BME280;38483;42.620;25.394;2023-03-23T08:28:17;97134.53;;;11.95;68.68
52591;BME280;38483;42.620;25.394;2023-03-23T08:31:12;97137.34;;;11.90;68.77
52591;BME280;38483;42.620;25.394;2023-03-23T08:33:50;97110.97;;;11.64;68.87
52591;BME280;38483;42.620;25.394;2023-03-23T08:36:35;97132.22;;;11.72;68.87
52591;BME280;38483;42.620;25.394;2023-03-23T08:39:35;97131.28;;;11.73;68.45
52591;BME280;38483;42.620;25.394;2023-03-23T08:42:25;97137.41;;;11.89;68.21
52591;BME280;38483;42.620;25.394;2023-03-23T08:45:07;97134.75;;;12.07;66.66
52591;BME280;38483;42.620;25.394;2023-03-23T08:48:03;97134.84;;;12.39;66.61
52591;BME280;38483;42.620;25.394;2023-03-23T08:50:43;97135.25;;;12.48;65.07
52591;BME280;38483;42.620;25.394;2023-03-23T08:53:22;97128.22;;;12.50;65.92
52591;BME280;38483;42.620;25.394;2023-03-23T08:56:04;97143.28;;;12.59;64.53
52591;BME280;38483;42.620;25.394;2023-03-23T08:58:45;97141.53;;;12.60;64.44
52591;BME280;38483;42.620;25.394;2023-03-23T09:01:43;97138.75;;;12.47;65.09
52591;BME280;38483;42.620;25.394;2023-03-23T09:04:41;97146.41;;;12.66;64.79
52591;BME280;38483;42.620;25.394;2023-03-23T09:07:28;97142.22;;;12.63;65.02
52591;BME280;38483;42.620;25.394;2023-03-23T09:09:54;97137.78;;;12.65;63.54
52591;BME280;38483;42.620;25.394;2023-03-23T09:12:20;97145.72;;;12.47;63.47
52591;BME280;38483;42.620;25.394;2023-03-23T09:14:52;97138.53;;;12.35;64.87
52591;BME280;38483;42.620;25.394;2023-03-23T09:17:18;97140.44;;;12.31;64.96
52591;BME280;38483;42.620;25.394;2023-03-23T09:19:44;97139.16;;;12.40;64.54
52591;BME280;38483;42.620;25.394;2023-03-23T09:22:10;97145.63;;;12.48;63.73
52591;BME280;38483;42.620;25.394;2023-03-23T09:24:36;97150.44;;;12.39;63.21
52591;BME280;38483;42.620;25.394;2023-03-23T09:27:03;97147.47;;;12.46;63.90
52591;BME280;38483;42.620;25.394;2023-03-23T09:29:30;97147.69;;;12.24;63.24
52591;BME280;38483;42.620;25.394;2023-03-23T09:31:56;97148.69;;;12.22;63.69
52591;BME280;38483;42.620;25.394;2023-03-23T09:34:22;97152.97;;;12.06;65.45
52591;BME280;38483;42.620;25.394;2023-03-23T09:36:48;97151.44;;;12.02;66.06
52591;BME280;38483;42.620;25.394;2023-03-23T09:39:15;97156.50;;;12.05;65.35
52591;BME280;38483;42.620;25.394;2023-03-23T09:52:13;97163.69;;;12.17;64.58
52591;BME280;38483;42.620;25.394;2023-03-23T09:54:49;97151.31;;;12.05;64.22
52591;BME280;38483;42.620;25.394;2023-03-23T09:57:43;97157.63;;;12.16;64.64
52591;BME280;38483;42.620;25.394;2023-03-23T10:00:26;97150.47;;;12.04;65.30
52591;BME280;38483;42.620;25.394;2023-03-23T10:05:41;97148.25;;;11.97;66.66
52591;BME280;38483;42.620;25.394;2023-03-23T10:08:13;97140.09;;;12.04;66.82
52591;BME280;38483;42.620;25.394;2023-03-23T10:15:49;97141.84;;;12.04;66.37
52591;BME280;38483;42.620;25.394;2023-03-23T10:18:38;97164.13;;;12.25;66.29
52591;BME280;38483;42.620;25.394;2023-03-23T10:21:11;97161.53;;;12.25;65.02
52591;BME280;38483;42.620;25.394;2023-03-23T10:23:52;97168.16;;;12.31;65.42
52591;BME280;38483;42.620;25.394;2023-03-23T10:28:50;97161.31;;;12.30;65.40
52591;BME280;38483;42.620;25.394;2023-03-23T10:31:37;97146.88;;;12.24;66.37
52591;BME280;38483;42.620;25.394;2023-03-23T10:34:22;97146.09;;;12.39;65.56
52591;BME280;38483;42.620;25.394;2023-03-23T10:37:05;97153.09;;;12.54;65.31
52591;BME280;38483;42.620;25.394;2023-03-23T10:39:43;97155.69;;;12.54;65.44
52591;BME280;38483;42.620;25.394;2023-03-23T10:42:20;97148.13;;;12.50;65.31
52591;BME280;38483;42.620;25.394;2023-03-23T10:44:47;97133.41;;;12.50;65.03
52591;BME280;38483;42.620;25.394;2023-03-23T10:47:13;97146.50;;;12.64;63.85
52591;BME280;38483;42.620;25.394;2023-03-23T10:49:48;97153.41;;;12.81;64.14
52591;BME280;38483;42.620;25.394;2023-03-23T10:52:36;97140.31;;;12.67;62.81
52591;BME280;38483;42.620;25.394;2023-03-23T10:57:31;97139.88;;;12.59;61.95
52591;BME280;38483;42.620;25.394;2023-03-23T11:00:18;97122.84;;;12.53;62.21
52591;BME280;38483;42.620;25.394;2023-03-23T11:02:59;97141.31;;;12.64;63.74
52591;BME280;38483;42.620;25.394;2023-03-23T11:05:52;97139.31;;;12.69;62.27
52591;BME280;38483;42.620;25.394;2023-03-23T11:08:22;97125.53;;;12.35;62.49
52591;BME280;38483;42.620;25.394;2023-03-23T11:13:17;97137.97;;;12.45;62.79
52591;BME280;38483;42.620;25.394;2023-03-23T11:15:46;97133.09;;;12.56;62.48
52591;BME280;38483;42.620;25.394;2023-03-23T11:20:46;97129.38;;;12.77;63.25
52591;BME280;38483;42.620;25.394;2023-03-23T11:23:27;97119.78;;;13.11;62.27
52591;BME280;38483;42.620;25.394;2023-03-23T11:25:55;97131.63;;;12.99;61.85
52591;BME280;38483;42.620;25.394;2023-03-23T11:28:27;97093.31;;;13.02;62.32
52591;BME280;38483;42.620;25.394;2023-03-23T11:30:55;97113.22;;;13.19;62.09
52591;BME280;38483;42.620;25.394;2023-03-23T11:33:23;97112.41;;;13.19;62.09
52591;BME280;38483;42.620;25.394;2023-03-23T11:35:52;97111.56;;;13.18;62.04
52591;BME280;38483;42.620;25.394;2023-03-23T11:38:21;97117.69;;;13.33;62.03
52591;BME280;38483;42.620;25.394;2023-03-23T11:40:50;97100.38;;;13.32;60.49
52591;BME280;38483;42.620;25.394;2023-03-23T11:43:23;97107.25;;;13.48;59.71
52591;BME280;38483;42.620;25.394;2023-03-23T11:45:54;97099.03;;;13.56;60.19
52591;BME280;38483;42.620;25.394;2023-03-23T11:51:17;97099.47;;;13.78;58.99
52591;BME280;38483;42.620;25.394;2023-03-23T11:56:36;97075.25;;;13.62;58.42
52591;BME280;38483;42.620;25.394;2023-03-23T11:59:10;97096.53;;;13.68;57.41
52591;BME280;38483;42.620;25.394;2023-03-23T12:09:39;97072.50;;;13.79;57.52
52591;BME280;38483;42.620;25.394;2023-03-23T12:12:35;97066.66;;;14.19;57.21
52591;BME280;38483;42.620;25.394;2023-03-23T12:17:48;97072.88;;;14.17;57.66
52591;BME280;38483;42.620;25.394;2023-03-23T12:20:20;97069.06;;;14.22;56.86
52591;BME280;38483;42.620;25.394;2023-03-23T12:23:01;97080.59;;;14.18;56.11
52591;BME280;38483;42.620;25.394;2023-03-23T12:30:48;97086.97;;;13.84;57.60
52591;BME280;38483;42.620;25.394;2023-03-23T12:35:52;97040.25;;;13.81;57.04
52591;BME280;38483;42.620;25.394;2023-03-23T12:43:51;97066.59;;;13.91;57.20
52591;BME280;38483;42.620;25.394;2023-03-23T12:49:08;97054.91;;;13.68;57.50
52591;BME280;38483;42.620;25.394;2023-03-23T12:51:43;97061.16;;;13.50;58.02
52591;BME280;38483;42.620;25.394;2023-03-23T12:54:37;97070.31;;;13.57;57.95
52591;BME280;38483;42.620;25.394;2023-03-23T12:57:18;97063.16;;;13.61;58.47
52591;BME280;38483;42.620;25.394;2023-03-23T12:59:49;97072.47;;;13.65;58.39
52591;BME280;38483;42.620;25.394;2023-03-23T13:02:23;97074.88;;;13.54;57.99
52591;BME280;38483;42.620;25.394;2023-03-23T13:04:57;97067.56;;;13.45;59.28
52591;BME280;38483;42.620;25.394;2023-03-23T13:07:34;97075.44;;;13.59;59.26
52591;BME280;38483;42.620;25.394;2023-03-23T13:10:25;97066.47;;;13.49;59.34
52591;BME280;38483;42.620;25.394;2023-03-23T13:12:53;97067.38;;;13.48;59.50
52591;BME280;38483;42.620;25.394;2023-03-23T13:18:16;97074.88;;;13.54;58.64
52591;BME280;38483;42.620;25.394;2023-03-23T13:23:45;97045.56;;;13.21;59.55
52591;BME280;38483;42.620;25.394;2023-03-23T13:26:20;97071.78;;;13.47;58.49
52591;BME280;38483;42.620;25.394;2023-03-23T13:29:00;97082.38;;;13.74;58.09
52591;BME280;38483;42.620;25.394;2023-03-23T13:31:32;97077.22;;;13.72;57.26
52591;BME280;38483;42.620;25.394;2023-03-23T13:34:22;97076.38;;;13.58;58.40
52591;BME280;38483;42.620;25.394;2023-03-23T13:37:04;97069.78;;;13.66;58.82
52591;BME280;38483;42.620;25.394;2023-03-23T13:39:34;97076.28;;;13.59;59.27
52591;BME280;38483;42.620;25.394;2023-03-23T13:50:01;97075.63;;;13.40;59.33
52591;BME280;38483;42.620;25.394;2023-03-23T14:03:15;97075.69;;;13.54;58.61
52591;BME280;38483;42.620;25.394;2023-03-23T14:10:43;97064.56;;;13.66;57.58
52591;BME280;38483;42.620;25.394;2023-03-23T14:13:16;97067.88;;;13.54;58.42
52591;BME280;38483;42.620;25.394;2023-03-23T14:16:02;97055.88;;;13.52;58.63
52591;BME280;38483;42.620;25.394;2023-03-23T14:18:51;97057.31;;;13.42;58.06
52591;BME280;38483;42.620;25.394;2023-03-23T14:21:32;97069.22;;;13.46;58.67
52591;BME280;38483;42.620;25.394;2023-03-23T14:24:10;97053.81;;;13.43;58.17
52591;BME280;38483;42.620;25.394;2023-03-23T14:26:37;97047.38;;;13.34;58.15
52591;BME280;38483;42.620;25.394;2023-03-23T14:29:04;97053.97;;;13.55;58.11
52591;BME280;38483;42.620;25.394;2023-03-23T14:31:32;97052.59;;;13.64;58.50
52591;BME280;38483;42.620;25.394;2023-03-23T14:34:03;97045.94;;;13.74;58.02
52591;BME280;38483;42.620;25.394;2023-03-23T14:36:31;97060.19;;;13.82;57.46
52591;BME280;38483;42.620;25.394;2023-03-23T14:42:01;97049.44;;;13.73;57.17
52591;BME280;38483;42.620;25.394;2023-03-23T14:44:32;97039.25;;;13.54;58.03
52591;BME280;38483;42.620;25.394;2023-03-23T14:47:02;97028.78;;;13.56;57.65
52591;BME280;38483;42.620;25.394;2023-03-23T14:49:38;97058.00;;;13.75;57.84
52591;BME280;38483;42.620;25.394;2023-03-23T14:52:16;97036.38;;;13.74;57.12
52591;BME280;38483;42.620;25.394;2023-03-23T14:54:44;97040.53;;;13.77;57.56
52591;BME280;38483;42.620;25.394;2023-03-23T14:57:14;97050.28;;;13.73;57.69
52591;BME280;38483;42.620;25.394;2023-03-23T14:59:45;97032.13;;;13.58;57.98
52591;BME280;38483;42.620;25.394;2023-03-23T15:02:22;97036.41;;;13.59;58.34
52591;BME280;38483;42.620;25.394;2023-03-23T15:04:53;97044.19;;;13.59;58.38
52591;BME280;38483;42.620;25.394;2023-03-23T15:07:20;97053.97;;;13.55;58.75
52591;BME280;38483;42.620;25.394;2023-03-23T15:09:48;97038.34;;;13.55;58.62
52591;BME280;38483;42.620;25.394;2023-03-23T15:12:25;97051.56;;;13.66;59.10
52591;BME280;38483;42.620;25.394;2023-03-23T15:14:55;97044.19;;;13.59;58.79
52591;BME280;38483;42.620;25.394;2023-03-23T15:17:24;97056.09;;;13.63;59.35
52591;BME280;38483;42.620;25.394;2023-03-23T15:19:54;97051.09;;;13.60;58.87
52591;BME280;38483;42.620;25.394;2023-03-23T15:25:01;97050.72;;;13.36;59.78